AXS weather

Altus Quartz Mountain Regional Airport
Altus, Oklahoma, United States

Public forecast

Using degrees Fahrenheit for public forecast. Weather courtesy of forecast.io.

Current aviation weather report (METAR) for Altus Quartz Mountain Regional Airport

Retrieved 2020/06/05 21:35 UTC (17 minutes ago):

KAXS 052135Z AUTO 16012G19KT 10SM CLR 37/17 A2992 RMK AO2 T03660173

Closest aviation forecast (TAF) to Altus Quartz Mountain Regional Airport

Closest forecast is Altus Air Force Base, 4.0 nm (7.4 km) ESE. Retrieved 2020/06/05 17:09 UTC (5 hours ago):

TAF KLTS 051705Z 0517/0623 VRB06KT 9999 SKC QNH2991INS BECMG 0519/0520 16010G15KT 9999 SKC QNH2987INS BECMG 0600/0601 16009KT 9999 SKC QNH2982INS BECMG 0614/0615 19012G18KT 9999 SKC 510102 QNH2980INS TX38/0520Z TN23/0612Z